createdAt,value
2017-05-07T00:01:24.242Z,79.76
2017-05-07T00:03:51.041Z,78.91
2017-05-07T00:06:17.379Z,78.46
2017-05-07T00:08:43.748Z,79.49
2017-05-07T00:11:10.128Z,79.80
2017-05-07T00:13:36.468Z,83.17
2017-05-07T00:16:02.840Z,82.99
2017-05-07T00:18:29.201Z,79.17
2017-05-07T00:20:55.745Z,76.03
2017-05-07T00:23:22.121Z,82.32
2017-05-07T00:25:48.446Z,78.57
2017-05-07T00:28:14.801Z,77.62
2017-05-07T00:30:41.318Z,76.00
2017-05-07T00:33:07.660Z,76.00
2017-05-07T00:35:33.991Z,78.12
2017-05-07T00:38:00.333Z,77.56
2017-05-07T00:40:26.808Z,79.30
2017-05-07T00:42:53.167Z,78.11
2017-05-07T00:45:19.508Z,79.00
2017-05-07T00:47:45.893Z,81.43
2017-05-07T00:50:12.313Z,78.36
2017-05-07T00:52:38.656Z,75.18
2017-05-07T00:55:04.982Z,80.70
2017-05-07T00:57:31.340Z,82.27
2017-05-07T00:59:57.700Z,79.60
2017-05-07T01:02:24.084Z,84.33
2017-05-07T01:04:50.422Z,83.00
2017-05-07T01:07:16.968Z,77.76
2017-05-07T01:09:43.304Z,83.80
2017-05-07T01:12:09.682Z,78.08
2017-05-07T01:14:36.030Z,82.86
2017-05-07T01:17:02.362Z,80.99
2017-05-07T01:19:28.714Z,76.52
2017-05-07T01:21:55.032Z,80.78
2017-05-07T01:24:21.356Z,76.88
2017-05-07T01:26:47.816Z,80.11
2017-05-07T01:29:14.146Z,83.18
2017-05-07T01:31:40.478Z,81.09
2017-05-07T01:34:06.827Z,80.35
2017-05-07T01:36:33.235Z,82.93
2017-05-07T01:38:59.563Z,82.08
2017-05-07T01:41:25.921Z,82.29
2017-05-07T01:43:52.237Z,82.96
2017-05-07T01:46:18.551Z,83.44
2017-05-07T01:48:44.893Z,81.96
2017-05-07T01:51:11.214Z,81.50
2017-05-07T01:53:37.583Z,80.59
2017-05-07T01:56:03.914Z,81.10
2017-05-07T01:58:30.248Z,81.48
2017-05-07T02:00:56.585Z,85.27
2017-05-07T02:03:22.898Z,86.11
2017-05-07T02:05:49.230Z,81.02
2017-05-07T02:08:15.583Z,79.31
2017-05-07T02:10:41.913Z,80.64
2017-05-07T02:13:08.237Z,80.55
2017-05-07T02:15:34.566Z,76.78
2017-05-07T02:18:00.900Z,77.42
2017-05-07T02:20:27.217Z,79.21
2017-05-07T02:22:53.560Z,82.21
2017-05-07T02:25:19.886Z,80.91
2017-05-07T02:27:46.251Z,81.21
2017-05-07T02:30:12.636Z,81.59
2017-05-07T02:32:39.052Z,77.99
2017-05-07T02:35:05.384Z,76.69
2017-05-07T02:37:31.733Z,82.28
2017-05-07T02:39:58.540Z,85.58
2017-05-07T02:42:24.899Z,86.57
2017-05-07T02:44:51.253Z,84.87
2017-05-07T02:47:17.607Z,81.08
2017-05-07T02:49:44.317Z,79.00
2017-05-07T02:52:10.646Z,79.85
2017-05-07T02:54:36.980Z,78.15
2017-05-07T02:57:03.328Z,82.17
2017-05-07T02:59:29.746Z,79.06
2017-05-07T03:01:56.081Z,80.62
2017-05-07T03:04:22.441Z,83.52
2017-05-07T03:06:48.815Z,81.90
2017-05-07T03:09:15.217Z,81.49
2017-05-07T03:11:41.546Z,81.73
2017-05-07T03:14:07.876Z,79.45
2017-05-07T03:16:34.316Z,79.05
2017-05-07T03:19:00.629Z,79.03
2017-05-07T03:21:26.962Z,82.20
2017-05-07T03:23:53.274Z,82.87
2017-05-07T03:26:19.591Z,81.86
2017-05-07T03:28:45.928Z,82.76
2017-05-07T03:31:12.277Z,84.90
2017-05-07T03:33:38.599Z,81.77
2017-05-07T03:36:04.949Z,82.80
2017-05-07T03:38:31.275Z,85.50
2017-05-07T03:40:57.652Z,85.90
2017-05-07T03:43:23.982Z,86.27
2017-05-07T03:45:50.348Z,84.33
2017-05-07T03:48:16.700Z,83.22
2017-05-07T03:50:43.976Z,83.48
2017-05-07T03:53:10.346Z,85.33
2017-05-07T03:55:36.694Z,86.52
2017-05-07T03:58:03.078Z,85.79
2017-05-07T04:00:29.395Z,82.44
2017-05-07T04:02:55.734Z,78.86
2017-05-07T04:05:22.081Z,79.64
2017-05-07T04:07:48.409Z,80.62
2017-05-07T04:10:14.741Z,82.40
2017-05-07T04:12:41.200Z,79.95
2017-05-07T04:15:07.585Z,76.88
2017-05-07T04:17:33.927Z,80.23
2017-05-07T04:20:00.249Z,81.48
2017-05-07T04:22:26.685Z,80.56
2017-05-07T04:24:53.035Z,81.87
2017-05-07T04:27:19.385Z,80.60
2017-05-07T04:29:45.732Z,79.83
2017-05-07T04:32:12.126Z,78.13
2017-05-07T04:34:38.462Z,76.47
2017-05-07T04:37:04.799Z,80.39
2017-05-07T04:39:31.128Z,84.63
2017-05-07T04:41:57.461Z,83.97
2017-05-07T04:44:23.803Z,81.68
2017-05-07T04:46:50.181Z,77.65
2017-05-07T04:49:16.512Z,77.10
2017-05-07T04:51:42.848Z,80.58
2017-05-07T04:54:09.172Z,83.17
2017-05-07T04:56:35.508Z,83.74
2017-05-07T04:59:01.830Z,86.62
2017-05-07T05:01:28.347Z,85.84
2017-05-07T05:03:54.673Z,80.75
2017-05-07T05:06:21.022Z,85.66
2017-05-07T05:08:47.382Z,82.17
2017-05-07T05:11:13.728Z,80.89
2017-05-07T05:13:40.054Z,85.08
2017-05-07T05:16:06.452Z,83.97
2017-05-07T05:18:32.820Z,86.56
2017-05-07T05:21:06.171Z,87.53
2017-05-07T05:27:00.129Z,85.81
2017-05-07T05:32:32.251Z,86.26
2017-05-07T05:34:58.605Z,85.54
2017-05-07T05:37:25.167Z,85.23
2017-05-07T05:39:51.546Z,85.91
2017-05-07T05:42:17.882Z,86.87
2017-05-07T05:44:44.222Z,85.60
2017-05-07T05:47:10.718Z,87.96
2017-05-07T05:49:37.022Z,84.79
2017-05-07T05:52:03.333Z,85.95
2017-05-07T05:54:29.681Z,85.29
2017-05-07T05:56:56.178Z,87.76
2017-05-07T05:59:22.513Z,85.11
2017-05-07T06:01:48.861Z,82.67
2017-05-07T06:04:15.196Z,86.02
2017-05-07T06:06:41.551Z,85.95
2017-05-07T06:09:07.896Z,84.02
2017-05-07T06:11:34.234Z,85.87
2017-05-07T06:14:00.602Z,86.97
2017-05-07T06:16:26.922Z,86.23
2017-05-07T06:18:53.299Z,86.37
2017-05-07T06:21:19.622Z,84.49
2017-05-07T06:23:45.957Z,87.22
2017-05-07T06:26:12.290Z,82.54
2017-05-07T06:28:38.640Z,85.33
2017-05-07T06:31:04.978Z,84.19
2017-05-07T06:33:31.300Z,82.71
2017-05-07T06:35:57.627Z,83.00
2017-05-07T06:38:24.148Z,84.60
2017-05-07T06:40:50.487Z,85.39
2017-05-07T06:43:16.835Z,82.92
2017-05-07T06:45:43.165Z,85.18
2017-05-07T06:48:09.635Z,85.86
2017-05-07T06:50:35.965Z,82.78
2017-05-07T06:53:02.293Z,83.12
2017-05-07T06:55:30.190Z,82.45
2017-05-07T06:57:57.210Z,84.00
2017-05-07T07:00:23.638Z,84.67
2017-05-07T07:02:49.988Z,84.64
2017-05-07T07:05:16.380Z,84.49
2017-05-07T07:07:42.754Z,83.39
2017-05-07T07:10:09.074Z,82.30
2017-05-07T07:12:35.398Z,82.33
2017-05-07T07:15:01.825Z,83.19
2017-05-07T07:17:28.139Z,81.77
2017-05-07T07:19:54.513Z,81.35
2017-05-07T07:22:20.850Z,78.48
2017-05-07T07:24:47.166Z,81.50
2017-05-07T07:27:13.504Z,78.89
2017-05-07T07:29:39.872Z,81.08
2017-05-07T07:32:06.288Z,81.90
2017-05-07T07:34:32.621Z,83.03
2017-05-07T07:36:58.994Z,81.45
2017-05-07T07:39:25.363Z,81.06
2017-05-07T07:41:51.698Z,81.70
2017-05-07T07:44:18.073Z,80.79
2017-05-07T07:46:44.431Z,79.62
2017-05-07T07:49:10.889Z,79.05
2017-05-07T07:51:37.256Z,79.75
2017-05-07T07:54:03.581Z,79.39
2017-05-07T07:56:29.949Z,80.03
2017-05-07T07:58:56.355Z,81.15
2017-05-07T08:01:22.683Z,79.71
2017-05-07T08:03:49.047Z,80.76
2017-05-07T08:06:15.390Z,79.67
2017-05-07T08:08:41.726Z,78.77
2017-05-07T08:11:08.042Z,78.95
2017-05-07T08:13:34.362Z,77.92
2017-05-07T08:16:00.691Z,78.19
2017-05-07T08:18:27.026Z,78.55
2017-05-07T08:20:53.368Z,77.72
2017-05-07T08:23:19.665Z,76.49
2017-05-07T08:25:45.993Z,76.58
2017-05-07T08:28:12.310Z,76.05
2017-05-07T08:30:38.609Z,75.74
2017-05-07T08:33:04.954Z,75.58
2017-05-07T08:35:31.292Z,75.54
2017-05-07T08:37:57.656Z,75.71
2017-05-07T08:40:23.990Z,76.90
2017-05-07T08:42:50.312Z,75.90
2017-05-07T08:45:16.650Z,75.97
2017-05-07T08:47:42.965Z,76.40
2017-05-07T08:50:09.303Z,75.42
2017-05-07T08:52:35.641Z,75.87
2017-05-07T08:55:01.976Z,75.12
2017-05-07T08:57:28.305Z,75.28
2017-05-07T08:59:54.609Z,74.43
2017-05-07T09:02:20.921Z,73.74
2017-05-07T09:04:47.346Z,73.39
2017-05-07T09:07:13.678Z,72.22
2017-05-07T09:09:40.078Z,72.59
2017-05-07T09:12:24.210Z,73.88
2017-05-07T09:15:06.317Z,72.95
2017-05-07T09:17:33.418Z,72.73
2017-05-07T09:19:59.749Z,72.65
2017-05-07T09:22:26.058Z,72.95
2017-05-07T09:24:52.454Z,73.60
2017-05-07T09:27:18.917Z,72.41
2017-05-07T09:29:45.258Z,72.44
2017-05-07T09:32:12.646Z,72.62
2017-05-07T09:34:39.117Z,71.50
2017-05-07T09:37:05.504Z,71.48
2017-05-07T09:39:31.850Z,71.58
2017-05-07T09:41:58.182Z,69.92
2017-05-07T09:44:24.513Z,69.55
2017-05-07T09:46:50.890Z,69.59
2017-05-07T09:49:17.213Z,68.54
2017-05-07T09:51:43.536Z,68.10
2017-05-07T09:54:09.896Z,67.92
2017-05-07T09:56:36.212Z,67.26
2017-05-07T09:59:02.533Z,65.64
2017-05-07T10:01:28.853Z,66.42
2017-05-07T10:03:55.167Z,66.85
2017-05-07T10:06:21.498Z,66.98
2017-05-07T10:08:47.843Z,66.85
2017-05-07T10:11:14.145Z,66.84
2017-05-07T10:13:40.480Z,66.01
2017-05-07T10:16:06.820Z,65.81
2017-05-07T10:18:33.149Z,65.53
2017-05-07T10:20:59.459Z,64.93
2017-05-07T10:23:26.051Z,65.31
2017-05-07T10:25:56.485Z,65.82
2017-05-07T10:28:28.491Z,65.14
2017-05-07T10:30:55.912Z,65.79
2017-05-07T10:33:23.629Z,65.59
2017-05-07T10:35:53.487Z,64.14
2017-05-07T10:38:20.222Z,64.48
2017-05-07T10:40:46.948Z,64.25
2017-05-07T10:43:13.582Z,64.18
2017-05-07T10:45:45.047Z,64.06
2017-05-07T10:48:11.619Z,62.91
2017-05-07T10:50:38.007Z,64.38
2017-05-07T10:53:10.516Z,63.90
2017-05-07T10:55:37.176Z,64.34
2017-05-07T10:58:03.474Z,64.12
2017-05-07T11:00:35.176Z,63.20
2017-05-07T11:03:02.191Z,62.23
2017-05-07T11:05:28.860Z,61.82
2017-05-07T11:07:55.336Z,63.12
2017-05-07T11:10:27.486Z,63.71
2017-05-07T11:12:54.231Z,64.33
2017-05-07T11:15:26.848Z,64.12
2017-05-07T11:17:53.245Z,63.50
2017-05-07T11:20:25.150Z,63.87
2017-05-07T11:22:56.964Z,63.63
2017-05-07T11:25:28.536Z,63.41
2017-05-07T11:27:58.058Z,61.54
2017-05-07T11:30:24.404Z,61.70
2017-05-07T11:32:52.394Z,61.12
2017-05-07T11:35:18.711Z,61.04
2017-05-07T11:37:48.574Z,61.63
2017-05-07T11:40:14.909Z,60.76
2017-05-07T11:42:48.394Z,61.13
2017-05-07T11:45:15.675Z,61.17
2017-05-07T11:47:47.425Z,61.17
2017-05-07T11:50:13.847Z,62.25
2017-05-07T11:52:40.154Z,62.09
2017-05-07T11:55:06.625Z,62.92
2017-05-07T11:57:33.382Z,62.28
2017-05-07T11:59:59.943Z,62.52
2017-05-07T12:02:27.232Z,62.16
2017-05-07T12:04:54.669Z,61.55
2017-05-07T12:07:26.468Z,61.09
2017-05-07T12:09:52.987Z,60.35
2017-05-07T12:12:19.403Z,60.47
2017-05-07T12:14:48.876Z,59.92
2017-05-07T12:17:15.748Z,60.48
2017-05-07T12:19:42.934Z,59.63
2017-05-07T12:22:09.419Z,60.12
2017-05-07T12:24:35.892Z,59.69
2017-05-07T12:27:02.220Z,58.34
2017-05-07T12:29:28.855Z,58.86
2017-05-07T12:32:00.607Z,57.79
2017-05-07T12:34:27.122Z,55.96
2017-05-07T12:36:58.849Z,56.00
2017-05-07T12:39:26.386Z,57.08
2017-05-07T12:41:52.714Z,55.77
2017-05-07T12:44:20.010Z,56.15
2017-05-07T12:46:47.622Z,56.00
2017-05-07T12:49:13.964Z,56.35
2017-05-07T12:51:40.789Z,56.94
2017-05-07T12:54:07.246Z,54.67
2017-05-07T12:56:35.293Z,53.83
2017-05-07T12:59:07.226Z,53.00
2017-05-07T13:01:33.836Z,52.19
2017-05-07T13:04:01.515Z,50.60
2017-05-07T13:06:33.150Z,51.35
2017-05-07T13:09:00.119Z,52.23
2017-05-07T13:11:30.675Z,48.10
2017-05-07T13:14:00.233Z,48.04
2017-05-07T13:16:26.585Z,48.52
2017-05-07T13:18:53.187Z,46.88
2017-05-07T13:21:25.666Z,47.81
2017-05-07T13:23:52.134Z,49.51
2017-05-07T13:26:34.041Z,49.45
2017-05-07T13:29:05.764Z,49.44
2017-05-07T13:31:33.100Z,48.71
2017-05-07T13:33:59.940Z,49.82
2017-05-07T13:36:31.816Z,48.91
2017-05-07T13:39:05.724Z,48.46
2017-05-07T13:41:32.149Z,47.39
2017-05-07T13:44:04.741Z,44.89
2017-05-07T13:46:31.841Z,48.40
2017-05-07T13:49:03.521Z,46.59
2017-05-07T13:51:29.959Z,46.93
2017-05-07T13:54:01.723Z,46.50
2017-05-07T13:56:30.275Z,46.91
2017-05-07T13:58:57.760Z,45.27
2017-05-07T14:01:29.500Z,44.93
2017-05-07T14:03:55.910Z,46.29
2017-05-07T14:06:22.612Z,48.42
2017-05-07T14:08:54.262Z,49.63
2017-05-07T14:11:21.014Z,51.74
2017-05-07T14:13:47.522Z,52.84
2017-05-07T14:16:14.968Z,54.16
2017-05-07T14:18:46.425Z,56.34
2017-05-07T14:21:12.886Z,56.79
2017-05-07T14:23:39.417Z,56.60
2017-05-07T14:26:06.082Z,57.91
2017-05-07T14:28:35.772Z,59.15
2017-05-07T14:31:02.544Z,58.76
2017-05-07T14:33:29.105Z,57.95
2017-05-07T14:35:55.486Z,58.77
2017-05-07T14:38:21.847Z,59.39
2017-05-07T14:40:48.170Z,59.94
2017-05-07T14:43:14.511Z,59.70
2017-05-07T14:45:40.901Z,59.74
2017-05-07T14:48:07.258Z,59.35
2017-05-07T14:50:33.741Z,60.33
2017-05-07T14:53:00.101Z,59.37
2017-05-07T14:55:26.440Z,60.26
2017-05-07T14:57:52.786Z,60.83
2017-05-07T15:00:19.174Z,61.00
2017-05-07T15:02:45.515Z,60.39
2017-05-07T15:05:11.859Z,60.11
2017-05-07T15:07:38.190Z,59.84
2017-05-07T15:10:04.659Z,59.36
2017-05-07T15:12:31.022Z,61.11
2017-05-07T15:14:57.393Z,60.55
2017-05-07T15:17:23.740Z,60.44
2017-05-07T15:19:50.158Z,61.12
2017-05-07T15:22:16.520Z,61.11
2017-05-07T15:24:42.842Z,60.85
2017-05-07T15:27:09.175Z,60.52
2017-05-07T15:29:35.545Z,61.16
2017-05-07T15:32:01.913Z,60.95
2017-05-07T15:34:28.789Z,60.80
2017-05-07T15:36:55.185Z,60.51
2017-05-07T15:39:21.531Z,61.83
2017-05-07T15:41:47.860Z,60.68
2017-05-07T15:44:14.185Z,60.41
2017-05-07T15:46:40.668Z,60.34
2017-05-07T15:49:07.021Z,60.21
2017-05-07T15:51:33.358Z,60.62
2017-05-07T15:53:59.720Z,60.42
2017-05-07T15:56:26.077Z,60.44
2017-05-07T15:58:52.423Z,60.49
2017-05-07T16:01:18.750Z,60.45
2017-05-07T16:03:45.088Z,60.64
2017-05-07T16:06:11.428Z,59.32
2017-05-07T16:08:37.812Z,59.55
2017-05-07T16:11:04.154Z,59.78
2017-05-07T16:13:30.476Z,60.27
2017-05-07T16:16:03.977Z,60.32
2017-05-07T16:18:45.483Z,60.70
2017-05-07T16:24:47.494Z,59.80
2017-05-07T16:27:20.650Z,59.27
2017-05-07T16:30:01.941Z,59.65
2017-05-07T16:32:28.296Z,60.04
2017-05-07T16:34:54.670Z,59.76
2017-05-07T16:37:21.052Z,60.08
2017-05-07T16:39:47.430Z,60.05
2017-05-07T16:42:26.264Z,60.23
2017-05-07T16:44:52.782Z,60.55
2017-05-07T16:47:19.128Z,60.89
2017-05-07T16:49:45.513Z,60.49
2017-05-07T16:52:11.884Z,59.93
2017-05-07T16:54:38.267Z,59.70
2017-05-07T16:57:04.641Z,59.70
2017-05-07T16:59:31.005Z,60.53
2017-05-07T17:01:57.467Z,61.15
2017-05-07T17:04:23.884Z,59.97
2017-05-07T17:06:56.533Z,59.64
2017-05-07T17:09:23.186Z,59.45
2017-05-07T17:11:49.563Z,59.92
2017-05-07T17:14:15.960Z,59.01
2017-05-07T17:16:42.345Z,59.62
2017-05-07T17:19:08.823Z,59.42
2017-05-07T17:21:35.287Z,58.93
2017-05-07T17:24:01.696Z,58.92
2017-05-07T17:26:28.152Z,59.40
2017-05-07T17:28:54.534Z,59.84
2017-05-07T17:31:20.862Z,59.99
2017-05-07T17:33:47.296Z,59.84
2017-05-07T17:36:14.099Z,59.53
2017-05-07T17:38:40.523Z,59.96
2017-05-07T17:41:06.977Z,59.61
2017-05-07T17:43:33.671Z,60.93
2017-05-07T17:46:00.028Z,60.35
2017-05-07T17:48:27.327Z,61.00
2017-05-07T17:50:53.702Z,61.33
2017-05-07T17:53:20.149Z,60.66
2017-05-07T17:55:46.546Z,60.80
2017-05-07T17:58:13.183Z,61.16
2017-05-07T18:00:39.995Z,60.86
2017-05-07T18:03:06.847Z,61.65
2017-05-07T18:05:34.824Z,60.97
2017-05-07T18:08:01.322Z,61.11
2017-05-07T18:10:28.200Z,60.52
2017-05-07T18:12:55.686Z,61.15
2017-05-07T18:15:22.482Z,60.67
2017-05-07T18:17:48.987Z,61.28
2017-05-07T18:20:16.619Z,61.05
2017-05-07T18:22:43.079Z,61.50
2017-05-07T18:25:09.533Z,61.97
2017-05-07T18:27:35.957Z,61.29
2017-05-07T18:30:02.441Z,61.57
2017-05-07T18:32:29.043Z,61.88
2017-05-07T18:34:55.499Z,62.03
2017-05-07T18:37:21.866Z,62.79
2017-05-07T18:39:48.249Z,62.28
2017-05-07T18:42:14.813Z,62.20
2017-05-07T18:44:42.244Z,63.01
2017-05-07T18:47:09.516Z,62.88
2017-05-07T18:49:37.251Z,62.46
2017-05-07T18:52:04.000Z,62.47
2017-05-07T18:54:30.603Z,63.19
2017-05-07T18:56:58.199Z,63.06
2017-05-07T18:59:24.644Z,63.16
2017-05-07T19:01:51.112Z,62.89
2017-05-07T19:04:18.047Z,63.40
2017-05-07T19:06:44.450Z,63.60
2017-05-07T19:09:11.274Z,63.23
2017-05-07T19:11:38.300Z,63.27
2017-05-07T19:14:05.903Z,63.35
2017-05-07T19:16:32.819Z,63.76
2017-05-07T19:18:59.363Z,63.96
2017-05-07T19:21:26.683Z,64.49
2017-05-07T19:23:53.635Z,64.24
2017-05-07T19:26:20.780Z,65.49
2017-05-07T19:28:47.253Z,65.06
2017-05-07T19:31:14.392Z,65.09
2017-05-07T19:33:42.132Z,64.52
2017-05-07T19:36:10.278Z,64.95
2017-05-07T19:38:37.622Z,65.37
2017-05-07T19:41:05.298Z,65.57
2017-05-07T19:43:32.036Z,65.00
2017-05-07T19:45:58.627Z,65.27
2017-05-07T19:48:25.806Z,65.39
2017-05-07T19:50:52.940Z,65.98
2017-05-07T19:53:19.980Z,65.83
2017-05-07T19:55:46.607Z,64.64
2017-05-07T19:58:13.203Z,64.78
2017-05-07T20:00:39.930Z,65.19
2017-05-07T20:03:07.712Z,65.56
2017-05-07T20:05:34.767Z,64.76
2017-05-07T20:08:02.022Z,65.37
2017-05-07T20:10:28.605Z,64.88
2017-05-07T20:12:56.400Z,65.09
2017-05-07T20:15:23.943Z,64.76
2017-05-07T20:17:50.739Z,64.29
2017-05-07T20:20:17.801Z,63.72
2017-05-07T20:22:44.326Z,63.53
2017-05-07T20:25:11.283Z,62.92
2017-05-07T20:27:38.476Z,62.10
2017-05-07T20:30:05.608Z,62.44
2017-05-07T20:32:32.034Z,62.00
2017-05-07T20:34:58.467Z,62.03
2017-05-07T20:37:24.808Z,61.04
2017-05-07T20:39:51.798Z,61.93
2017-05-07T20:42:18.130Z,62.02
2017-05-07T20:44:44.560Z,62.38
2017-05-07T20:47:11.124Z,62.61
2017-05-07T20:49:37.490Z,62.63
2017-05-07T20:52:03.908Z,63.39
2017-05-07T20:54:30.267Z,62.95
2017-05-07T20:56:56.615Z,63.34
2017-05-07T20:59:22.938Z,63.68
2017-05-07T21:01:49.289Z,63.58
2017-05-07T21:04:15.613Z,63.24
2017-05-07T21:06:41.982Z,63.43
2017-05-07T21:09:08.309Z,63.34
2017-05-07T21:11:34.627Z,63.13
2017-05-07T21:14:00.918Z,63.29
2017-05-07T21:16:27.291Z,64.42
2017-05-07T21:18:53.625Z,64.61
2017-05-07T21:21:19.934Z,64.31
2017-05-07T21:23:46.247Z,64.76
2017-05-07T21:26:12.570Z,64.88
2017-05-07T21:28:38.934Z,64.69
2017-05-07T21:31:05.287Z,65.29
2017-05-07T21:33:31.634Z,65.13
2017-05-07T21:35:58.023Z,65.71
2017-05-07T21:38:24.379Z,65.38
2017-05-07T21:40:50.730Z,64.78
2017-05-07T21:43:17.053Z,65.55
2017-05-07T21:45:43.380Z,63.39
2017-05-07T21:48:09.722Z,63.39
2017-05-07T21:50:36.074Z,64.44
2017-05-07T21:53:02.408Z,64.06
2017-05-07T21:55:28.740Z,64.34
2017-05-07T21:57:55.051Z,63.91
2017-05-07T22:00:21.372Z,63.66
2017-05-07T22:02:47.736Z,65.13
2017-05-07T22:05:14.088Z,64.67
2017-05-07T22:07:40.438Z,63.25
2017-05-07T22:10:06.795Z,65.07
2017-05-07T22:12:33.358Z,65.39
2017-05-07T22:14:59.720Z,63.80
2017-05-07T22:17:26.041Z,66.66
2017-05-07T22:19:52.418Z,66.12
2017-05-07T22:22:18.811Z,65.78
2017-05-07T22:24:45.198Z,67.35
2017-05-07T22:27:11.532Z,66.31
2017-05-07T22:29:37.877Z,65.00
2017-05-07T22:32:04.540Z,66.55
2017-05-07T22:34:30.885Z,67.66
2017-05-07T22:36:57.236Z,65.97
2017-05-07T22:39:23.613Z,67.74
2017-05-07T22:41:49.980Z,67.73
2017-05-07T22:44:16.324Z,67.05
2017-05-07T22:46:42.701Z,67.18
2017-05-07T22:49:09.324Z,65.69
2017-05-07T22:51:36.032Z,67.57
2017-05-07T22:54:02.445Z,69.44
2017-05-07T22:56:29.572Z,68.94
2017-05-07T22:58:55.962Z,69.99
2017-05-07T23:01:23.727Z,70.36
2017-05-07T23:03:50.291Z,71.13
2017-05-07T23:06:16.703Z,70.59
2017-05-07T23:08:43.049Z,70.09
2017-05-07T23:11:10.229Z,71.46
2017-05-07T23:13:37.364Z,70.40
2017-05-07T23:16:04.684Z,67.62
2017-05-07T23:18:31.833Z,70.20
2017-05-07T23:20:58.840Z,68.91
2017-05-07T23:23:25.305Z,68.19
2017-05-07T23:25:51.666Z,69.19
2017-05-07T23:28:17.991Z,68.72
2017-05-07T23:30:44.318Z,69.80
2017-05-07T23:33:10.644Z,71.17
2017-05-07T23:35:37.379Z,72.60
2017-05-07T23:38:03.720Z,69.52
2017-05-07T23:40:30.173Z,70.54
2017-05-07T23:42:56.562Z,72.91
2017-05-07T23:45:22.893Z,68.64
2017-05-07T23:47:49.283Z,70.06
2017-05-07T23:50:15.776Z,69.04
2017-05-07T23:52:42.119Z,70.68
2017-05-07T23:55:08.446Z,72.20
2017-05-07T23:57:34.762Z,70.70
